sensor_id;sensor_type;location;lat;lon;timestamp;P1;durP1;ratioP1;P2;durP2;ratioP2
29218;SDS011;16421;50.202;7.852;2022-12-07T00:02:48;4.03;;;2.55;;
29218;SDS011;16421;50.202;7.852;2022-12-07T00:07:52;4.03;;;2.63;;
29218;SDS011;16421;50.202;7.852;2022-12-07T00:12:55;3.28;;;2.50;;
29218;SDS011;16421;50.202;7.852;2022-12-07T00:18:00;6.88;;;3.70;;
29218;SDS011;16421;50.202;7.852;2022-12-07T00:23:03;4.10;;;3.00;;
29218;SDS011;16421;50.202;7.852;2022-12-07T00:28:07;2.97;;;2.20;;
29218;SDS011;16421;50.202;7.852;2022-12-07T00:33:13;3.55;;;2.13;;
29218;SDS011;16421;50.202;7.852;2022-12-07T00:38:17;2.65;;;2.20;;
29218;SDS011;16421;50.202;7.852;2022-12-07T00:43:20;3.95;;;2.80;;
29218;SDS011;16421;50.202;7.852;2022-12-07T00:48:25;3.92;;;2.63;;
29218;SDS011;16421;50.202;7.852;2022-12-07T00:53:29;3.17;;;2.20;;
29218;SDS011;16421;50.202;7.852;2022-12-07T00:58:35;3.80;;;2.38;;
29218;SDS011;16421;50.202;7.852;2022-12-07T01:03:40;3.03;;;2.20;;
29218;SDS011;16421;50.202;7.852;2022-12-07T01:08:44;4.35;;;2.38;;
29218;SDS011;16421;50.202;7.852;2022-12-07T01:13:49;2.40;;;1.93;;
29218;SDS011;16421;50.202;7.852;2022-12-07T01:18:55;2.42;;;1.90;;
29218;SDS011;16421;50.202;7.852;2022-12-07T01:24:00;2.47;;;1.90;;
29218;SDS011;16421;50.202;7.852;2022-12-07T01:29:03;3.38;;;1.95;;
29218;SDS011;16421;50.202;7.852;2022-12-07T01:34:08;2.15;;;1.80;;
29218;SDS011;16421;50.202;7.852;2022-12-07T01:39:14;2.20;;;1.60;;
29218;SDS011;16421;50.202;7.852;2022-12-07T01:44:19;2.70;;;1.80;;
29218;SDS011;16421;50.202;7.852;2022-12-07T01:49:27;2.67;;;2.20;;
29218;SDS011;16421;50.202;7.852;2022-12-07T01:54:34;2.08;;;1.52;;
29218;SDS011;16421;50.202;7.852;2022-12-07T01:59:38;1.77;;;1.50;;
29218;SDS011;16421;50.202;7.852;2022-12-07T02:04:43;2.75;;;1.80;;
29218;SDS011;16421;50.202;7.852;2022-12-07T02:09:49;2.85;;;2.05;;
29218;SDS011;16421;50.202;7.852;2022-12-07T02:14:53;3.30;;;2.58;;
29218;SDS011;16421;50.202;7.852;2022-12-07T02:20:04;4.88;;;3.75;;
29218;SDS011;16421;50.202;7.852;2022-12-07T02:25:19;3.75;;;2.50;;
29218;SDS011;16421;50.202;7.852;2022-12-07T02:30:31;4.70;;;2.80;;
29218;SDS011;16421;50.202;7.852;2022-12-07T02:35:39;3.38;;;2.42;;
29218;SDS011;16421;50.202;7.852;2022-12-07T02:40:44;3.55;;;2.53;;
29218;SDS011;16421;50.202;7.852;2022-12-07T02:45:54;3.75;;;2.70;;
29218;SDS011;16421;50.202;7.852;2022-12-07T02:51:01;4.38;;;3.08;;
29218;SDS011;16421;50.202;7.852;2022-12-07T02:56:05;3.30;;;2.70;;
29218;SDS011;16421;50.202;7.852;2022-12-07T03:01:16;4.82;;;3.05;;
29218;SDS011;16421;50.202;7.852;2022-12-07T03:06:30;7.97;;;4.83;;
29218;SDS011;16421;50.202;7.852;2022-12-07T03:11:38;6.22;;;3.70;;
29218;SDS011;16421;50.202;7.852;2022-12-07T03:16:51;4.57;;;3.25;;
29218;SDS011;16421;50.202;7.852;2022-12-07T03:21:59;11.45;;;7.65;;
29218;SDS011;16421;50.202;7.852;2022-12-07T03:27:06;8.70;;;5.47;;
29218;SDS011;16421;50.202;7.852;2022-12-07T03:32:15;7.32;;;4.70;;
29218;SDS011;16421;50.202;7.852;2022-12-07T03:37:23;9.55;;;6.20;;
29218;SDS011;16421;50.202;7.852;2022-12-07T03:42:33;7.13;;;5.05;;
29218;SDS011;16421;50.202;7.852;2022-12-07T03:47:41;8.50;;;5.93;;
29218;SDS011;16421;50.202;7.852;2022-12-07T03:52:51;12.98;;;8.30;;
29218;SDS011;16421;50.202;7.852;2022-12-07T03:57:59;10.05;;;7.22;;
29218;SDS011;16421;50.202;7.852;2022-12-07T04:03:07;7.38;;;5.00;;
29218;SDS011;16421;50.202;7.852;2022-12-07T04:08:10;6.65;;;4.78;;
29218;SDS011;16421;50.202;7.852;2022-12-07T04:13:14;5.70;;;3.85;;
29218;SDS011;16421;50.202;7.852;2022-12-07T04:18:18;4.30;;;3.28;;
29218;SDS011;16421;50.202;7.852;2022-12-07T04:23:22;5.53;;;4.22;;
29218;SDS011;16421;50.202;7.852;2022-12-07T04:28:25;5.03;;;3.38;;
29218;SDS011;16421;50.202;7.852;2022-12-07T04:33:30;5.15;;;3.47;;
29218;SDS011;16421;50.202;7.852;2022-12-07T04:38:33;4.45;;;2.85;;
29218;SDS011;16421;50.202;7.852;2022-12-07T04:43:37;10.23;;;5.53;;
29218;SDS011;16421;50.202;7.852;2022-12-07T04:48:42;5.90;;;4.20;;
29218;SDS011;16421;50.202;7.852;2022-12-07T04:53:45;6.03;;;3.75;;
29218;SDS011;16421;50.202;7.852;2022-12-07T04:58:49;4.95;;;3.45;;
29218;SDS011;16421;50.202;7.852;2022-12-07T05:03:54;6.07;;;4.60;;
29218;SDS011;16421;50.202;7.852;2022-12-07T05:08:58;8.95;;;6.18;;
29218;SDS011;16421;50.202;7.852;2022-12-07T05:14:02;11.75;;;7.88;;
29218;SDS011;16421;50.202;7.852;2022-12-07T05:19:08;7.65;;;5.28;;
29218;SDS011;16421;50.202;7.852;2022-12-07T05:24:13;5.47;;;3.70;;
29218;SDS011;16421;50.202;7.852;2022-12-07T05:29:18;8.97;;;5.90;;
29218;SDS011;16421;50.202;7.852;2022-12-07T05:34:22;6.82;;;3.53;;
29218;SDS011;16421;50.202;7.852;2022-12-07T05:39:26;4.13;;;2.78;;
29218;SDS011;16421;50.202;7.852;2022-12-07T05:44:29;4.72;;;3.28;;
29218;SDS011;16421;50.202;7.852;2022-12-07T05:49:34;3.33;;;2.58;;
29218;SDS011;16421;50.202;7.852;2022-12-07T05:54:37;2.50;;;2.00;;
29218;SDS011;16421;50.202;7.852;2022-12-07T05:59:41;3.38;;;2.53;;
29218;SDS011;16421;50.202;7.852;2022-12-07T06:04:46;3.00;;;2.40;;
29218;SDS011;16421;50.202;7.852;2022-12-07T06:09:49;3.35;;;2.42;;
29218;SDS011;16421;50.202;7.852;2022-12-07T06:14:53;5.35;;;3.63;;
29218;SDS011;16421;50.202;7.852;2022-12-07T06:19:58;3.53;;;2.60;;
29218;SDS011;16421;50.202;7.852;2022-12-07T06:25:02;5.32;;;3.90;;
29218;SDS011;16421;50.202;7.852;2022-12-07T06:30:09;6.28;;;4.60;;
29218;SDS011;16421;50.202;7.852;2022-12-07T06:35:14;7.70;;;4.93;;
29218;SDS011;16421;50.202;7.852;2022-12-07T06:40:17;7.32;;;4.57;;
29218;SDS011;16421;50.202;7.852;2022-12-07T06:45:21;7.43;;;4.88;;
29218;SDS011;16421;50.202;7.852;2022-12-07T06:50:26;5.63;;;3.45;;
29218;SDS011;16421;50.202;7.852;2022-12-07T06:55:29;4.28;;;3.17;;
29218;SDS011;16421;50.202;7.852;2022-12-07T07:00:32;6.05;;;4.35;;
29218;SDS011;16421;50.202;7.852;2022-12-07T07:05:38;8.15;;;5.50;;
29218;SDS011;16421;50.202;7.852;2022-12-07T07:10:42;5.55;;;4.15;;
29218;SDS011;16421;50.202;7.852;2022-12-07T07:15:46;7.10;;;4.68;;
29218;SDS011;16421;50.202;7.852;2022-12-07T07:20:51;6.88;;;4.65;;
29218;SDS011;16421;50.202;7.852;2022-12-07T07:25:54;7.75;;;5.00;;
29218;SDS011;16421;50.202;7.852;2022-12-07T07:30:58;4.28;;;3.22;;
29218;SDS011;16421;50.202;7.852;2022-12-07T07:36:03;4.43;;;3.10;;
29218;SDS011;16421;50.202;7.852;2022-12-07T07:41:07;5.37;;;2.73;;
29218;SDS011;16421;50.202;7.852;2022-12-07T07:46:10;3.83;;;3.13;;
29218;SDS011;16421;50.202;7.852;2022-12-07T07:51:15;3.97;;;2.35;;
29218;SDS011;16421;50.202;7.852;2022-12-07T07:56:19;4.22;;;2.70;;
29218;SDS011;16421;50.202;7.852;2022-12-07T08:01:22;4.78;;;3.20;;
29218;SDS011;16421;50.202;7.852;2022-12-07T08:06:27;4.10;;;2.85;;
29218;SDS011;16421;50.202;7.852;2022-12-07T08:11:32;4.25;;;2.88;;
29218;SDS011;16421;50.202;7.852;2022-12-07T08:16:35;3.65;;;2.42;;
29218;SDS011;16421;50.202;7.852;2022-12-07T08:21:41;3.38;;;2.67;;
29218;SDS011;16421;50.202;7.852;2022-12-07T08:26:44;3.40;;;1.95;;
29218;SDS011;16421;50.202;7.852;2022-12-07T08:31:48;4.38;;;2.65;;
29218;SDS011;16421;50.202;7.852;2022-12-07T08:36:52;3.05;;;2.40;;
29218;SDS011;16421;50.202;7.852;2022-12-07T08:41:56;5.25;;;3.33;;
29218;SDS011;16421;50.202;7.852;2022-12-07T08:47:00;4.65;;;3.55;;
29218;SDS011;16421;50.202;7.852;2022-12-07T08:52:08;5.18;;;3.58;;
29218;SDS011;16421;50.202;7.852;2022-12-07T08:57:11;8.30;;;5.43;;
29218;SDS011;16421;50.202;7.852;2022-12-07T09:02:14;5.45;;;3.33;;
29218;SDS011;16421;50.202;7.852;2022-12-07T09:07:19;3.63;;;2.95;;
29218;SDS011;16421;50.202;7.852;2022-12-07T09:12:23;6.78;;;4.22;;
29218;SDS011;16421;50.202;7.852;2022-12-07T09:17:26;3.88;;;3.03;;
29218;SDS011;16421;50.202;7.852;2022-12-07T09:22:31;4.45;;;2.88;;
29218;SDS011;16421;50.202;7.852;2022-12-07T09:27:34;4.05;;;2.35;;
29218;SDS011;16421;50.202;7.852;2022-12-07T09:32:38;8.13;;;5.22;;
29218;SDS011;16421;50.202;7.852;2022-12-07T09:37:42;21.55;;;12.15;;
29218;SDS011;16421;50.202;7.852;2022-12-07T09:42:47;12.27;;;6.82;;
29218;SDS011;16421;50.202;7.852;2022-12-07T09:47:52;6.20;;;3.58;;
29218;SDS011;16421;50.202;7.852;2022-12-07T09:53:02;4.50;;;2.65;;
29218;SDS011;16421;50.202;7.852;2022-12-07T09:58:12;4.97;;;3.33;;
29218;SDS011;16421;50.202;7.852;2022-12-07T10:03:22;5.55;;;3.22;;
29218;SDS011;16421;50.202;7.852;2022-12-07T10:08:27;5.18;;;3.45;;
29218;SDS011;16421;50.202;7.852;2022-12-07T10:13:34;7.18;;;3.92;;
29218;SDS011;16421;50.202;7.852;2022-12-07T10:18:38;6.50;;;4.00;;
29218;SDS011;16421;50.202;7.852;2022-12-07T10:23:59;5.00;;;2.95;;
29218;SDS011;16421;50.202;7.852;2022-12-07T10:29:12;7.95;;;3.78;;
29218;SDS011;16421;50.202;7.852;2022-12-07T10:34:21;4.10;;;2.57;;
29218;SDS011;16421;50.202;7.852;2022-12-07T10:39:27;4.13;;;2.75;;
29218;SDS011;16421;50.202;7.852;2022-12-07T10:44:32;4.07;;;2.77;;
29218;SDS011;16421;50.202;7.852;2022-12-07T10:55:35;2.50;;;2.30;;
29218;SDS011;16421;50.202;7.852;2022-12-07T11:00:51;2.13;;;1.88;;
29218;SDS011;16421;50.202;7.852;2022-12-07T11:06:03;3.97;;;2.40;;
29218;SDS011;16421;50.202;7.852;2022-12-07T11:11:19;3.30;;;2.38;;
29218;SDS011;16421;50.202;7.852;2022-12-07T11:16:34;6.55;;;2.97;;
29218;SDS011;16421;50.202;7.852;2022-12-07T11:21:58;4.50;;;2.30;;
29218;SDS011;16421;50.202;7.852;2022-12-07T11:27:10;2.78;;;2.10;;
29218;SDS011;16421;50.202;7.852;2022-12-07T11:32:24;5.03;;;2.60;;
29218;SDS011;16421;50.202;7.852;2022-12-07T11:43:01;3.38;;;1.90;;
29218;SDS011;16421;50.202;7.852;2022-12-07T11:48:10;3.17;;;1.55;;
29218;SDS011;16421;50.202;7.852;2022-12-07T11:53:18;1.90;;;1.30;;
29218;SDS011;16421;50.202;7.852;2022-12-07T11:58:31;3.97;;;1.83;;
29218;SDS011;16421;50.202;7.852;2022-12-07T12:03:44;2.67;;;1.35;;
29218;SDS011;16421;50.202;7.852;2022-12-07T12:08:54;5.72;;;2.60;;
29218;SDS011;16421;50.202;7.852;2022-12-07T12:14:39;3.88;;;2.15;;
29218;SDS011;16421;50.202;7.852;2022-12-07T12:19:58;5.90;;;2.08;;
29218;SDS011;16421;50.202;7.852;2022-12-07T12:25:07;7.15;;;3.03;;
29218;SDS011;16421;50.202;7.852;2022-12-07T12:30:26;2.70;;;2.05;;
29218;SDS011;16421;50.202;7.852;2022-12-07T12:35:37;4.80;;;2.03;;
29218;SDS011;16421;50.202;7.852;2022-12-07T12:45:51;5.43;;;1.92;;
29218;SDS011;16421;50.202;7.852;2022-12-07T12:51:37;2.88;;;1.80;;
29218;SDS011;16421;50.202;7.852;2022-12-07T12:56:46;1.67;;;0.98;;
29218;SDS011;16421;50.202;7.852;2022-12-07T13:01:54;4.30;;;0.90;;
29218;SDS011;16421;50.202;7.852;2022-12-07T13:07:13;3.22;;;1.20;;
29218;SDS011;16421;50.202;7.852;2022-12-07T13:12:55;0.88;;;0.70;;
29218;SDS011;16421;50.202;7.852;2022-12-07T13:18:01;2.25;;;0.70;;
29218;SDS011;16421;50.202;7.852;2022-12-07T13:23:08;2.22;;;0.93;;
29218;SDS011;16421;50.202;7.852;2022-12-07T13:28:14;1.83;;;0.70;;
29218;SDS011;16421;50.202;7.852;2022-12-07T13:33:19;1.63;;;0.90;;
29218;SDS011;16421;50.202;7.852;2022-12-07T13:38:25;2.00;;;1.23;;
29218;SDS011;16421;50.202;7.852;2022-12-07T13:43:31;4.07;;;2.45;;
29218;SDS011;16421;50.202;7.852;2022-12-07T13:48:45;2.58;;;1.20;;
29218;SDS011;16421;50.202;7.852;2022-12-07T13:53:52;2.63;;;1.02;;
29218;SDS011;16421;50.202;7.852;2022-12-07T13:58:57;1.48;;;0.88;;
29218;SDS011;16421;50.202;7.852;2022-12-07T14:09:37;2.67;;;1.45;;
29218;SDS011;16421;50.202;7.852;2022-12-07T14:14:40;1.88;;;1.10;;
29218;SDS011;16421;50.202;7.852;2022-12-07T14:19:50;1.35;;;0.88;;
29218;SDS011;16421;50.202;7.852;2022-12-07T14:30:03;1.25;;;0.70;;
29218;SDS011;16421;50.202;7.852;2022-12-07T14:35:09;1.10;;;0.70;;
29218;SDS011;16421;50.202;7.852;2022-12-07T14:40:19;1.20;;;0.60;;
29218;SDS011;16421;50.202;7.852;2022-12-07T14:45:23;0.50;;;0.50;;
29218;SDS011;16421;50.202;7.852;2022-12-07T14:50:27;0.85;;;0.80;;
29218;SDS011;16421;50.202;7.852;2022-12-07T14:55:32;1.38;;;0.50;;
29218;SDS011;16421;50.202;7.852;2022-12-07T15:00:36;0.57;;;0.47;;
29218;SDS011;16421;50.202;7.852;2022-12-07T15:05:40;0.57;;;0.57;;
29218;SDS011;16421;50.202;7.852;2022-12-07T15:10:45;3.53;;;0.70;;
29218;SDS011;16421;50.202;7.852;2022-12-07T15:15:49;2.60;;;1.58;;
29218;SDS011;16421;50.202;7.852;2022-12-07T15:20:54;3.33;;;1.20;;
29218;SDS011;16421;50.202;7.852;2022-12-07T15:25:58;1.42;;;1.02;;
29218;SDS011;16421;50.202;7.852;2022-12-07T15:31:02;1.65;;;1.25;;
29218;SDS011;16421;50.202;7.852;2022-12-07T15:36:18;2.00;;;1.33;;
29218;SDS011;16421;50.202;7.852;2022-12-07T15:41:24;1.60;;;1.30;;
29218;SDS011;16421;50.202;7.852;2022-12-07T15:46:31;1.60;;;1.17;;
29218;SDS011;16421;50.202;7.852;2022-12-07T15:51:35;2.10;;;1.23;;
29218;SDS011;16421;50.202;7.852;2022-12-07T15:56:40;1.67;;;1.58;;
29218;SDS011;16421;50.202;7.852;2022-12-07T16:01:44;2.33;;;2.07;;
29218;SDS011;16421;50.202;7.852;2022-12-07T16:06:48;4.65;;;2.50;;
29218;SDS011;16421;50.202;7.852;2022-12-07T16:11:54;3.45;;;2.22;;
29218;SDS011;16421;50.202;7.852;2022-12-07T16:16:57;3.40;;;2.20;;
29218;SDS011;16421;50.202;7.852;2022-12-07T16:22:01;5.18;;;3.20;;
29218;SDS011;16421;50.202;7.852;2022-12-07T16:27:07;4.85;;;3.08;;
29218;SDS011;16421;50.202;7.852;2022-12-07T16:32:11;5.53;;;3.38;;
29218;SDS011;16421;50.202;7.852;2022-12-07T16:37:14;7.10;;;4.50;;
29218;SDS011;16421;50.202;7.852;2022-12-07T16:42:19;6.28;;;3.88;;
29218;SDS011;16421;50.202;7.852;2022-12-07T16:47:23;8.63;;;4.72;;
29218;SDS011;16421;50.202;7.852;2022-12-07T16:52:26;12.23;;;7.18;;
29218;SDS011;16421;50.202;7.852;2022-12-07T16:57:31;8.30;;;5.38;;
29218;SDS011;16421;50.202;7.852;2022-12-07T17:02:35;6.93;;;3.85;;
29218;SDS011;16421;50.202;7.852;2022-12-07T17:07:38;6.50;;;3.95;;
29218;SDS011;16421;50.202;7.852;2022-12-07T17:12:43;7.32;;;4.18;;
29218;SDS011;16421;50.202;7.852;2022-12-07T17:17:50;5.60;;;3.53;;
29218;SDS011;16421;50.202;7.852;2022-12-07T17:22:55;6.95;;;4.00;;
29218;SDS011;16421;50.202;7.852;2022-12-07T17:28:00;7.80;;;5.07;;
29218;SDS011;16421;50.202;7.852;2022-12-07T17:33:04;10.27;;;5.30;;
29218;SDS011;16421;50.202;7.852;2022-12-07T17:38:07;10.52;;;5.82;;
29218;SDS011;16421;50.202;7.852;2022-12-07T17:43:12;8.18;;;5.10;;
29218;SDS011;16421;50.202;7.852;2022-12-07T17:48:16;5.88;;;3.60;;
29218;SDS011;16421;50.202;7.852;2022-12-07T17:53:19;5.18;;;2.97;;
29218;SDS011;16421;50.202;7.852;2022-12-07T17:58:24;4.38;;;2.85;;
29218;SDS011;16421;50.202;7.852;2022-12-07T18:03:28;7.60;;;4.20;;
29218;SDS011;16421;50.202;7.852;2022-12-07T18:08:33;6.85;;;3.80;;
29218;SDS011;16421;50.202;7.852;2022-12-07T18:13:40;4.63;;;3.20;;
29218;SDS011;16421;50.202;7.852;2022-12-07T18:18:44;5.45;;;3.28;;
29218;SDS011;16421;50.202;7.852;2022-12-07T18:23:59;5.85;;;3.13;;
29218;SDS011;16421;50.202;7.852;2022-12-07T18:29:06;4.00;;;2.35;;
29218;SDS011;16421;50.202;7.852;2022-12-07T18:34:12;2.70;;;1.95;;
29218;SDS011;16421;50.202;7.852;2022-12-07T18:39:19;3.30;;;1.90;;
29218;SDS011;16421;50.202;7.852;2022-12-07T18:44:24;3.53;;;2.17;;
29218;SDS011;16421;50.202;7.852;2022-12-07T18:49:27;4.63;;;2.25;;
29218;SDS011;16421;50.202;7.852;2022-12-07T18:54:31;3.97;;;2.33;;
29218;SDS011;16421;50.202;7.852;2022-12-07T18:59:35;2.20;;;1.75;;
29218;SDS011;16421;50.202;7.852;2022-12-07T19:04:49;2.43;;;2.00;;
29218;SDS011;16421;50.202;7.852;2022-12-07T19:09:53;3.30;;;1.60;;
29218;SDS011;16421;50.202;7.852;2022-12-07T19:14:57;2.67;;;1.50;;
29218;SDS011;16421;50.202;7.852;2022-12-07T19:20:02;3.00;;;1.67;;
29218;SDS011;16421;50.202;7.852;2022-12-07T19:25:07;9.13;;;4.53;;
29218;SDS011;16421;50.202;7.852;2022-12-07T19:30:12;5.10;;;2.65;;
29218;SDS011;16421;50.202;7.852;2022-12-07T19:35:17;3.33;;;2.30;;
29218;SDS011;16421;50.202;7.852;2022-12-07T19:40:20;6.10;;;3.15;;
29218;SDS011;16421;50.202;7.852;2022-12-07T19:45:25;7.60;;;4.38;;
29218;SDS011;16421;50.202;7.852;2022-12-07T19:50:29;12.67;;;4.97;;
29218;SDS011;16421;50.202;7.852;2022-12-07T19:55:37;6.18;;;2.83;;
29218;SDS011;16421;50.202;7.852;2022-12-07T20:00:44;9.75;;;4.28;;
29218;SDS011;16421;50.202;7.852;2022-12-07T20:05:48;8.70;;;3.90;;
29218;SDS011;16421;50.202;7.852;2022-12-07T20:10:51;5.50;;;3.00;;
29218;SDS011;16421;50.202;7.852;2022-12-07T20:15:56;2.65;;;2.15;;
29218;SDS011;16421;50.202;7.852;2022-12-07T20:21:18;4.72;;;3.38;;
29218;SDS011;16421;50.202;7.852;2022-12-07T20:26:22;6.78;;;3.90;;
29218;SDS011;16421;50.202;7.852;2022-12-07T20:31:27;8.90;;;4.65;;
29218;SDS011;16421;50.202;7.852;2022-12-07T20:36:31;5.95;;;3.63;;
29218;SDS011;16421;50.202;7.852;2022-12-07T20:41:34;4.45;;;2.65;;
29218;SDS011;16421;50.202;7.852;2022-12-07T20:46:57;6.40;;;3.38;;
29218;SDS011;16421;50.202;7.852;2022-12-07T20:52:02;6.28;;;3.38;;
29218;SDS011;16421;50.202;7.852;2022-12-07T20:57:06;8.38;;;4.10;;
29218;SDS011;16421;50.202;7.852;2022-12-07T21:02:11;7.38;;;4.20;;
29218;SDS011;16421;50.202;7.852;2022-12-07T21:07:15;4.97;;;2.97;;
29218;SDS011;16421;50.202;7.852;2022-12-07T21:12:19;8.05;;;4.47;;
29218;SDS011;16421;50.202;7.852;2022-12-07T21:17:25;8.65;;;4.07;;
29218;SDS011;16421;50.202;7.852;2022-12-07T21:22:29;5.40;;;3.47;;
29218;SDS011;16421;50.202;7.852;2022-12-07T21:27:32;10.27;;;5.10;;
29218;SDS011;16421;50.202;7.852;2022-12-07T21:32:38;7.45;;;4.30;;
29218;SDS011;16421;50.202;7.852;2022-12-07T21:37:42;6.53;;;3.70;;
29218;SDS011;16421;50.202;7.852;2022-12-07T21:42:46;7.63;;;3.63;;
29218;SDS011;16421;50.202;7.852;2022-12-07T21:47:53;3.53;;;2.63;;
29218;SDS011;16421;50.202;7.852;2022-12-07T21:52:57;4.35;;;2.70;;
29218;SDS011;16421;50.202;7.852;2022-12-07T21:58:01;5.25;;;3.15;;
29218;SDS011;16421;50.202;7.852;2022-12-07T22:03:07;9.85;;;4.53;;
29218;SDS011;16421;50.202;7.852;2022-12-07T22:08:14;8.65;;;4.78;;
29218;SDS011;16421;50.202;7.852;2022-12-07T22:13:18;7.75;;;4.80;;
29218;SDS011;16421;50.202;7.852;2022-12-07T22:18:23;5.68;;;3.83;;
29218;SDS011;16421;50.202;7.852;2022-12-07T22:23:26;9.75;;;5.30;;
29218;SDS011;16421;50.202;7.852;2022-12-07T22:28:33;7.10;;;4.82;;
29218;SDS011;16421;50.202;7.852;2022-12-07T22:33:39;5.82;;;2.95;;
29218;SDS011;16421;50.202;7.852;2022-12-07T22:38:43;4.78;;;3.30;;
29218;SDS011;16421;50.202;7.852;2022-12-07T22:43:47;4.22;;;2.80;;
29218;SDS011;16421;50.202;7.852;2022-12-07T22:48:52;3.75;;;2.85;;
29218;SDS011;16421;50.202;7.852;2022-12-07T22:53:56;3.58;;;2.20;;
29218;SDS011;16421;50.202;7.852;2022-12-07T22:59:00;4.25;;;1.98;;
29218;SDS011;16421;50.202;7.852;2022-12-07T23:04:06;5.00;;;2.65;;
29218;SDS011;16421;50.202;7.852;2022-12-07T23:09:11;2.80;;;2.13;;
29218;SDS011;16421;50.202;7.852;2022-12-07T23:14:16;2.50;;;1.80;;
29218;SDS011;16421;50.202;7.852;2022-12-07T23:19:22;3.40;;;2.10;;
29218;SDS011;16421;50.202;7.852;2022-12-07T23:24:25;2.90;;;2.08;;
29218;SDS011;16421;50.202;7.852;2022-12-07T23:29:29;2.08;;;1.67;;
29218;SDS011;16421;50.202;7.852;2022-12-07T23:34:33;2.70;;;1.98;;
29218;SDS011;16421;50.202;7.852;2022-12-07T23:39:37;3.17;;;1.92;;
29218;SDS011;16421;50.202;7.852;2022-12-07T23:44:43;2.50;;;1.77;;
29218;SDS011;16421;50.202;7.852;2022-12-07T23:49:50;3.78;;;2.25;;
29218;SDS011;16421;50.202;7.852;2022-12-07T23:54:54;3.75;;;2.60;;
29218;SDS011;16421;50.202;7.852;2022-12-07T23:59:57;4.13;;;2.50;;
